Wednesday, October 1, 2014, 4:16 PM EDT

KTHV, York Airport

Location: Spring Grove, PA, United States Lat: 39.917
Local Time: 4:16 PM EDT (20:16 GMT) Lon: -76.883
Time Zone: US/Eastern Elev: 478 ft

Show me the last for .
Show Decoded

2014-10-01 15:53 METAR KTHV 011953Z AUTO 00000KT 10SM OVC027 21/14 A3003 RMK AO2 SLP169 T02110144
                 =
2014-10-01 14:53 METAR KTHV 011853Z AUTO 00000KT 9SM BKN024 21/14 A3003 RMK AO2 SLP171 T02110144
                 =
2014-10-01 14:27 METAR KTHV 011827Z AUTO VRB03KT 7SM BKN023 OVC048 21/15 A3004 RMK AO2 T02060150
                 =
2014-10-01 13:53 METAR KTHV 011753Z AUTO 08005KT 6SM HZ SCT019 OVC047 19/14 A3005 RMK AO2 SLP177
                 T01940144 10200 20167 58005 =
2014-10-01 13:33 METAR KTHV 011733Z AUTO 06006KT 6SM HZ SCT021 OVC046 20/14 A3006 RMK AO2
                 T02000144 =
2014-10-01 12:53 METAR KTHV 011653Z AUTO 03005KT 6SM HZ OVC021 19/14 A3007 RMK AO2 SLP183
                 T01890144 =
2014-10-01 11:53 METAR KTHV 011553Z AUTO 08004KT 5SM HZ OVC016 18/15 A3007 RMK AO2 SLP185
                 T01780150 =
2014-10-01 11:27 METAR KTHV 011527Z AUTO 07004KT 6SM HZ OVC015 18/14 A3007 RMK AO2 T01780144 =
2014-10-01 10:53 METAR KTHV 011453Z AUTO 08005KT 7SM OVC013 18/15 A3007 RMK AO2 SLP183 T01780150
                 51008 =
2014-10-01 09:53 METAR KTHV 011353Z AUTO 07005KT 5SM BR OVC012 17/15 A3006 RMK AO2 SLP180
                 T01670150 =
2014-10-01 09:44 METAR KTHV 011344Z AUTO 08004KT 4SM HZ BKN007 OVC012 18/15 A3005 RMK AO2 CIG
                 006V011 T01780150 =
2014-10-01 09:26 METAR KTHV 011326Z AUTO 05005KT 3SM BR BKN009 OVC012 17/16 A3005 RMK AO2 CIG
                 006V011 T01670156 =
2014-10-01 08:59 METAR KTHV 011259Z AUTO 05003KT 3SM BR BKN010 17/16 A3004 RMK AO2 CIG 005V013
                 T01720156 =
2014-10-01 08:53 METAR KTHV 011253Z AUTO 04006KT 3SM BR BKN006 BKN012 17/16 A3004 RMK AO2 CIG
                 005V011 SLP173 T01720156 =
2014-10-01 08:49 METAR KTHV 011249Z AUTO 02004KT 3SM BR BKN006 BKN012 17/16 A3004 RMK AO2 CIG
                 004V009 =
2014-10-01 08:38 METAR KTHV 011238Z AUTO 04004KT 3SM BR SCT006 BKN012 17/16 A3004 RMK AO2
                 T01720156 =
2014-10-01 08:28 METAR KTHV 011228Z AUTO 06003KT 3SM BR BKN004 OVC012 17/16 A3004 RMK AO2
                 T01670156 =
2014-10-01 08:16 METAR KTHV 011216Z AUTO 00000KT 2 1/2SM BR BKN004 OVC010 17/16 A3004 RMK AO2
                 T01670156 =
2014-10-01 08:00 METAR KTHV 011200Z AUTO 05005KT 2 1/2SM BR BKN005 BKN012 OVC060 16/16 A3002 RMK
                 AO2 CIG 004V009 T01610156 =
2014-10-01 07:53 METAR KTHV 011153Z AUTO 07003KT 2SM BR SCT005 BKN023 BKN060 16/16 A3002 RMK AO2
                 SLP166 60000 70034 T01610156 10161 20128 53015 =
2014-10-01 07:42 METAR KTHV 011142Z AUTO 07005KT 2SM BR SCT004 BKN015 OVC060 16/15 A3002 RMK AO2
                 T01560150 =
2014-10-01 07:33 METAR KTHV 011133Z AUTO 00000KT 2SM BR SCT015 BKN022 OVC060 16/15 A3002 RMK AO2
                 T01560150 =
2014-10-01 07:20 METAR KTHV 011120Z AUTO 31003KT 1 1/2SM BR BKN014 OVC022 15/14 A3002 RMK AO2
                 T01500144 =
2014-10-01 07:11 METAR KTHV 011111Z AUTO 00000KT 2SM BR BKN014 OVC022 15/14 A3001 RMK AO2
                 T01500144 =
2014-10-01 06:53 METAR KTHV 011053Z AUTO 00000KT 3SM BR BKN012 OVC021 15/14 A3001 RMK AO2 SLP161
                 T01500144 =
2014-10-01 06:46 METAR KTHV 011046Z AUTO 00000KT 3SM BR OVC012 15/14 A3001 RMK AO2 T01500144 =
2014-10-01 06:39 METAR KTHV 011039Z AUTO 00000KT 2 1/2SM BR OVC011 14/14 A3000 RMK AO2 T01440144
                 =
2014-10-01 06:22 METAR KTHV 011022Z AUTO 00000KT 3SM BR OVC011 14/14 A2999 RMK AO2 T01440139 =
2014-10-01 06:19 METAR KTHV 011019Z AUTO 00000KT 2SM BR OVC011 14/14 A2999 RMK AO2 T01440139 TSNO
                 =
2014-10-01 06:14 METAR KTHV 011014Z AUTO 00000KT 1SM BR OVC011 14/14 A2999 RMK AO2 T01390139 =
2014-10-01 06:00 METAR KTHV 011000Z AUTO 00000KT 1 3/4SM BR BKN011 14/13 A2998 RMK AO2 T01390133
                 =
2014-10-01 05:56 METAR KTHV 010956Z AUTO 00000KT 2 1/2SM BR FEW007 BKN011 14/14 A2998 RMK AO2
                 T01390139 =
2014-10-01 05:53 METAR KTHV 010953Z AUTO 00000KT 3SM BR BKN011 14/14 A2998 RMK AO2 SLP153
                 T01440144 =
2014-10-01 05:41 METAR KTHV 010941Z AUTO 08003KT 2 1/2SM BR SCT008 BKN013 BKN019 15/14 A2998 RMK
                 AO2 T01500144 =
2014-10-01 05:12 METAR KTHV 010912Z AUTO 00000KT 1 3/4SM BR SCT006 BKN018 16/15 A2998 RMK AO2
                 T01560150 =
2014-10-01 05:07 METAR KTHV 010907Z AUTO 00000KT 2SM BR BKN006 BKN018 16/15 A2998 RMK AO2
                 T01560150 =
2014-10-01 04:53 METAR KTHV 010853Z AUTO 00000KT 3SM BR OVC006 16/16 A2998 RMK AO2 RAB03E13
                 SLP151 P0000 60000 T01610156 56005 =
2014-10-01 04:51 METAR KTHV 010851Z AUTO 00000KT 3SM BR OVC006 16/16 A2998 RMK AO2 RAB03E13 P0000
                 =
2014-10-01 04:27 METAR KTHV 010827Z AUTO 00000KT 2 1/2SM BR OVC006 16/15 A2998 RMK AO2 RAB03E13
                 CIG 003V008 P0000 T01560150 =
2014-10-01 04:15 METAR KTHV 010815Z AUTO 00000KT 2SM BR BKN007 OVC022 16/15 A2997 RMK AO2
                 RAB03E13 CIG 003V008 P0000 T01560150 =
2014-10-01 03:53 METAR KTHV 010753Z AUTO 00000KT 2SM BR FEW004 OVC020 16/15 A2998 RMK AO2 SLP151
                 T01560150 =
2014-10-01 03:43 METAR KTHV 010743Z AUTO 00000KT 2 1/2SM BR SCT004 OVC020 16/15 A2998 RMK AO2
                 T01560150 =
2014-10-01 03:37 METAR KTHV 010737Z AUTO 00000KT 2SM BR BKN004 OVC018 16/15 A2998 RMK AO2
                 T01560150 =
2014-10-01 02:53 METAR KTHV 010653Z AUTO 00000KT 3SM BR BKN005 OVC011 16/15 A2999 RMK AO2 SLP156
                 T01560150 =
2014-10-01 02:49 METAR KTHV 010649Z AUTO 00000KT 3SM BR BKN005 OVC011 16/15 A2999 RMK AO2 =
2014-10-01 02:26 METAR KTHV 010626Z AUTO 04003KT 3SM BR FEW003 OVC013 15/15 A2999 RMK AO2
                 T01500150 =
2014-10-01 02:20 METAR KTHV 010620Z AUTO 00000KT 2 1/2SM BR FEW004 SCT007 OVC015 15/14 A2999 RMK
                 AO2 T01500144 =
2014-10-01 02:14 METAR KTHV 010614Z AUTO 06003KT 1 1/4SM BR FEW004 OVC015 14/14 A2999 RMK AO2
                 T01440139 =
2014-10-01 02:04 METAR KTHV 010604Z AUTO 00000KT 3/4SM BR FEW002 FEW006 BKN015 13/13 A2999 RMK
                 AO2 T01330128 =
2014-10-01 01:53 METAR KTHV 010553Z AUTO 00000KT 3/4SM BR FEW006 SCT014 13/13 A2999 RMK AO2
                 SLP156 60034 T01330133 10189 20133 53007 =
2014-10-01 01:51 METAR KTHV 010551Z AUTO 00000KT 3/4SM BR FEW006 SCT014 13/13 A2999 RMK AO2 =
2014-10-01 01:44 METAR KTHV 010544Z AUTO 00000KT 3/4SM BR VV006 13/13 A2999 RMK AO2 T01330133 =
2014-10-01 01:41 METAR KTHV 010541Z AUTO 00000KT 1 1/4SM BR SCT006 13/13 A2999 RMK AO2 T01330133
                 =
2014-10-01 01:33 METAR KTHV 010533Z AUTO 28003KT 2SM BR FEW006 14/13 A2998 RMK AO2 T01390133 =
2014-10-01 00:53 METAR KTHV 010453Z AUTO 00000KT 8SM FEW003 14/14 A2997 RMK AO2 RAE06 SLP147
                 P0001 T01440139 402390117 =
2014-10-01 00:43 METAR KTHV 010443Z AUTO 14004KT 7SM SCT003 15/14 A2996 RMK AO2 LTG DSNT E RAE06
                 P0001 T01500144 =
2014-10-01 00:33 METAR KTHV 010433Z AUTO 12005KT 5SM BR BKN003 15/14 A2996 RMK AO2 LTG DSNT E
                 RAE06 P0001 T01500144 =
2014-10-01 00:17 METAR KTHV 010417Z AUTO 13005KT 6SM BR FEW005 SCT065 BKN100 16/15 A2997 RMK AO2
                 LTG DSNT NE AND E RAE06 P0000 T01560150 =
2014-09-30 23:53 METAR KTHV 010353Z AUTO 07006KT 5SM -RA BR OVC090 16/15 A2997 RMK AO2 LTG DSNT
                 NE AND SE TSE03 SLP149 P0020 T01560150 =
2014-09-30 22:53 METAR KTHV 010253Z AUTO 00000KT 4SM TSRA BR FEW050 BKN065 OVC080 16/14 A2997 RMK
                 AO2 LTG DSNT NW-NE TSE16B48 SLP150 P0010 60013 T01560144 50017 =
2014-09-30 22:49 METAR KTHV 010249Z AUTO 00000KT 4SM TSRA BR FEW048 BKN065 OVC085 16/14 A2997 RMK
                 AO2 LTG DSNT NW-NE TSE16B48 P0009 =
2014-09-30 22:22 METAR KTHV 010222Z AUTO 28004KT 3SM VCTS +RA BR OVC038 16/14 A2998 RMK AO2 LTG
                 DSNT N AND S TSE16 P0005 T01610144 =
2014-09-30 21:53 METAR KTHV 010153Z AUTO 30006KT 6SM -TSRA BR FEW030 OVC036 17/15 A2997 RMK AO2
                 LTG DSNT ALQDS RAB27 TSB30 SLP149 P0003 T01670150 =
2014-09-30 21:36 METAR KTHV 010136Z AUTO 27008KT 10SM -TSRA SCT029 BKN036 OVC060 18/15 A2995 RMK
                 AO2 LTG DSNT SW-N RAB27 TSB30 P0000 T01780150 =
2014-09-30 21:23 METAR KTHV 010123Z AUTO 26004KT 10SM FEW047 OVC060 18/16 A2994 RMK AO2 LTG DSNT
                 SW-NW T01780156 =
2014-09-30 20:53 METAR KTHV 010053Z AUTO 00000KT 10SM VCTS BKN065 BKN090 18/16 A2992 RMK AO2 LTG
                 DSNT SW-NW SLP133 T01830156 =
2014-09-30 20:33 METAR KTHV 010033Z AUTO 00000KT 10SM VCTS BKN070 OVC090 19/16 A2992 RMK AO2 LTG
                 DSNT SW-NW T01890156 =
2014-09-30 19:53 METAR KTHV 302353Z AUTO 00000KT 10SM BKN065 18/16 A2991 RMK AO2 LTG DSNT W AND
                 NW SLP127 T01830156 10233 20183 53013 =
2014-09-30 18:53 METAR KTHV 302253Z AUTO 15004KT 10SM CLR 20/16 A2989 RMK AO2 SLP121 T02000156 =
2014-09-30 17:53 METAR KTHV 302153Z AUTO 15005KT 10SM CLR 22/16 A2987 RMK AO2 SLP116 T02170156 =
2014-09-30 16:53 METAR KTHV 302053Z AUTO 11005KT 10SM FEW075 23/16 A2987 RMK AO2 SLP114 T02330161
                 58010 =

Support USWX by starting your Amazon purchase here.